CheckWX is a tool to help pilots better visualize weather data.  It is not intended as a substitute for an official pre-flight weather briefing.

04:31:55 UTC

HTMT METAR
Mtwara Airport
Mtwara, Tanzania
Current

14 hours ago

HTMT 241500Z 18007KT 9999 SCT021 FEW023CB BKN080 28/22 Q1009 NOSIG
Observed
Apr-24 @ 15:00 UTC
Wind
  • 180° at 7 KTS
Visibility
10,000+ meters
Flight Rules
VFR
Cloud Levels
  • Scattered at 2,100' AGL
  • Few at 2,300' AGL
  • Broken at 8,000' AGL
Temperature
28°C / 82°F
Dewpoint
22°C / 72°F
Heat Index
30°C / 86°F
Humidity
70%
Altimeter
29.79" Hg
Pressure
1008.92 hPa
Previous

15 hours ago

HTMT 241400Z 20008KT 9999 SCT023 FEW024CB BKN080 29/22 Q1009 NOSIG
Observed
Apr-24 @ 14:00 UTC
Wind
  • 200° at 8 KTS
Visibility
10,000+ meters
Flight Rules
VFR
Cloud Levels
  • Scattered at 2,300' AGL
  • Few at 2,400' AGL
  • Broken at 8,000' AGL
Temperature
29°C / 84°F
Dewpoint
22°C / 72°F
Heat Index
32°C / 89°F
Humidity
66%
Altimeter
29.79" Hg
Pressure
1008.92 hPa
Previous

16 hours ago

HTMT 241300Z 18010KT 9999 SCT023 FEW024CB BKN080 30/22 Q1009 NOSIG
Observed
Apr-24 @ 13:00 UTC
Wind
  • 180° at 10 KTS
Visibility
10,000+ meters
Flight Rules
VFR
Cloud Levels
  • Scattered at 2,300' AGL
  • Few at 2,400' AGL
  • Broken at 8,000' AGL
Temperature
30°C / 86°F
Dewpoint
22°C / 72°F
Heat Index
33°C / 92°F
Humidity
62%
Altimeter
29.79" Hg
Pressure
1008.92 hPa